METAR LOCAUX

2021/05/10 18:30 LFST 101830Z AUTO VRB02KT 9999 -RA FEW005 BKN060 OVC078 13/13 Q1010 TEMPO 3000 RA BKN010 SCT030TCU
2021/05/10 18:50 EDSB 101850Z VRB02KT 9999 -RA FEW010 SCT025 13/12 Q1011
2021/05/10 18:30 LFGA 101830Z AUTO VRB02KT 5000 -RA BR SCT005 BKN010 BKN015 13/12 Q1010
www.noaa.gov

Ne pas utiliser pour préparer ou effectuer un vol: Utilisez la documentation officielle disponible sur aviation.meteo.fr (Aéroweb)


"Le soleil du matin ne dure pas forcément toute la journée."

Animation satellite IR

Meteociel.fr

"Derrière chaque nuage se cache le ciel bleu."

Radar pluie

Infoclimat.fr

"Si tu veux l’arc-en-ciel, tu dois supporter la pluie."
Dolly Parton

Nébulosité (octas)

Meteociel.fr

"Le soleil est souvent obscurci par les nuages et la raison par les passions."
Démophile

Impacts de foudre

www.meteo60.fr

"Celui que frappe la foudre n'entend pas le tonnerre."

Vigilance météo

vigilance-meteo.fr

"Tout nuage n'enfante pas une tempête."
William Shakespeare

TAF locaux

2021/05/10 18:21 TAF LFST 101700Z 1018/1118 20005KT 9999 -RA SCT055 BKN100 TEMPO 1018/1112 3000 RA BKN010 SCT030TCU PROB40 TEMPO 1110/1112 FEW030CB TEMPO 1112/1118 3000 SHRA SCT025CB
2021/05/10 18:49 TAF EDSB 101700Z 1018/1118 19004KT 9999 FEW015 SCT045 TEMPO 1018/1024 RA TEMPO 1100/1109 4000 -RA BR BKN014 PROB40 TEMPO 1109/1115 RA BKN014
www.noaa.gov

Ne pas utiliser pour préparer ou effectuer un vol: Utilisez la documentation officielle disponible sur aviation.meteo.fr (Aéroweb)


"Les jours où le ciel est gris, le soleil n'a pas disparu à tout jamais."
Arnaud Desjardins

Prévisions 7 jours


Meteoblue.com

"Quand les crapauds chantent, le beau temps s'avance !"